RYR45P EGSS-EIDW
Flight info
| Callsign | RYR45P |
|---|---|
| Flight time | 0h 53m |
| Altitude | 32000 |
| Route | NUGBO M183 SILVA P86 DIDZA N14 OKSAW DCT BIBPE DCT OKTAD DCT MEDOG DCT KRAGY DCT PEMOB M17 VATRY VATRY4L |
| Aircraft | B38M/M-SDE1FGHILORVWXY/HB1 |
Departure
| Time | 2026-05-06 11:41 |
|---|---|
| Airport | London Stansted Airport (EGSS) |
Arrival
| Time | 2026-05-06 12:35 |
|---|---|
| Airport | Dublin Airport (EIDW) |
| Time | Latitude | Longitude | Altitude | Speed | Heading |
|---|---|---|---|---|---|
| 2026-05-06 11:15 | 51.89147 | 0.25746 | 362 ft | 0 kts | 223° |
| 2026-05-06 11:28 | 51.89150 | 0.25750 | 363 ft | 3 kts | 223° |
| 2026-05-06 11:28 | 51.89169 | 0.25779 | 359 ft | 4 kts | 223° |
| 2026-05-06 11:29 | 51.89188 | 0.25808 | 363 ft | 2 kts | 223° |
| 2026-05-06 11:29 | 51.89202 | 0.25833 | 363 ft | 4 kts | 249° |
| 2026-05-06 11:29 | 51.89199 | 0.25862 | 360 ft | 3 kts | 313° |
| 2026-05-06 11:29 | 51.89186 | 0.25886 | 360 ft | 0 kts | 313° |
| 2026-05-06 11:33 | 51.89193 | 0.25873 | 364 ft | 3 kts | 313° |
| 2026-05-06 11:34 | 51.89215 | 0.25836 | 364 ft | 7 kts | 314° |
| 2026-05-06 11:34 | 51.89258 | 0.25763 | 358 ft | 12 kts | 313° |
| 2026-05-06 11:34 | 51.89325 | 0.25644 | 361 ft | 15 kts | 313° |
| 2026-05-06 11:34 | 51.89331 | 0.25507 | 355 ft | 14 kts | 227° |
| 2026-05-06 11:35 | 51.89252 | 0.25390 | 355 ft | 16 kts | 223° |
| 2026-05-06 11:35 | 51.89163 | 0.25258 | 356 ft | 18 kts | 222° |
| 2026-05-06 11:35 | 51.89067 | 0.25113 | 355 ft | 20 kts | 222° |
| 2026-05-06 11:35 | 51.88960 | 0.24950 | 360 ft | 22 kts | 222° |
| 2026-05-06 11:36 | 51.88846 | 0.24779 | 356 ft | 23 kts | 221° |
| 2026-05-06 11:36 | 51.88721 | 0.24591 | 351 ft | 27 kts | 222° |
| 2026-05-06 11:36 | 51.88578 | 0.24377 | 351 ft | 29 kts | 221° |
| 2026-05-06 11:36 | 51.88446 | 0.24179 | 351 ft | 17 kts | 229° |
| 2026-05-06 11:37 | 51.88473 | 0.24007 | 345 ft | 19 kts | 295° |
| 2026-05-06 11:37 | 51.88448 | 0.23887 | 345 ft | 7 kts | 223° |
| 2026-05-06 11:37 | 51.88410 | 0.23829 | 346 ft | 8 kts | 224° |
| 2026-05-06 11:37 | 51.88366 | 0.23756 | 346 ft | 10 kts | 226° |
| 2026-05-06 11:38 | 51.88307 | 0.23669 | 353 ft | 12 kts | 222° |
| 2026-05-06 11:38 | 51.88233 | 0.23562 | 356 ft | 17 kts | 222° |
| 2026-05-06 11:38 | 51.88122 | 0.23395 | 347 ft | 26 kts | 223° |
| 2026-05-06 11:38 | 51.87969 | 0.23167 | 339 ft | 32 kts | 222° |
| 2026-05-06 11:39 | 51.87802 | 0.22915 | 342 ft | 33 kts | 222° |
| 2026-05-06 11:39 | 51.87631 | 0.22660 | 339 ft | 35 kts | 225° |
| 2026-05-06 11:39 | 51.87472 | 0.22418 | 330 ft | 27 kts | 223° |
| 2026-05-06 11:39 | 51.87411 | 0.22227 | 329 ft | 13 kts | 285° |
| 2026-05-06 11:40 | 51.87457 | 0.22116 | 324 ft | 14 kts | 306° |
| 2026-05-06 11:40 | 51.87526 | 0.22041 | 324 ft | 9 kts | 11° |
| 2026-05-06 11:40 | 51.87580 | 0.22101 | 323 ft | 11 kts | 43° |
| 2026-05-06 11:40 | 51.87764 | 0.22377 | 333 ft | 71 kts | 43° |
| 2026-05-06 11:41 | 51.88296 | 0.23174 | 338 ft | 136 kts | 43° |
| 2026-05-06 11:41 | 51.89083 | 0.24401 | 650 ft | 167 kts | 46° |
| 2026-05-06 11:41 | 51.89902 | 0.25828 | 1470 ft | 178 kts | 47° |
| 2026-05-06 11:41 | 51.90821 | 0.27250 | 2245 ft | 186 kts | 30° |
| 2026-05-06 11:42 | 51.92068 | 0.27938 | 2977 ft | 196 kts | 6° |
| 2026-05-06 11:42 | 51.93538 | 0.27748 | 3099 ft | 220 kts | 346° |
| 2026-05-06 11:42 | 51.94809 | 0.26605 | 3432 ft | 214 kts | 321° |
| 2026-05-06 11:42 | 51.95952 | 0.25087 | 3954 ft | 213 kts | 329° |
| 2026-05-06 11:43 | 51.97061 | 0.23385 | 4497 ft | 232 kts | 303° |
| 2026-05-06 11:43 | 51.97426 | 0.20733 | 4961 ft | 255 kts | 266° |
| 2026-05-06 11:43 | 51.97141 | 0.17875 | 5760 ft | 260 kts | 266° |
| 2026-05-06 11:44 | 51.96956 | 0.11874 | 7752 ft | 271 kts | 271° |
| 2026-05-06 11:44 | 51.96961 | 0.08757 | 8658 ft | 278 kts | 272° |
| 2026-05-06 11:44 | 51.96998 | 0.05639 | 9863 ft | 276 kts | 274° |
| 2026-05-06 11:44 | 51.97056 | 0.02498 | 10668 ft | 287 kts | 274° |
| 2026-05-06 11:45 | 51.97129 | -0.00846 | 11159 ft | 307 kts | 274° |
| 2026-05-06 11:45 | 51.97214 | -0.04355 | 11664 ft | 323 kts | 273° |
| 2026-05-06 11:45 | 51.97148 | -0.08067 | 12266 ft | 337 kts | 261° |
| 2026-05-06 11:45 | 51.96653 | -0.11832 | 13043 ft | 343 kts | 259° |
| 2026-05-06 11:46 | 51.96160 | -0.15614 | 13876 ft | 347 kts | 259° |
| 2026-05-06 11:46 | 51.95658 | -0.19451 | 14642 ft | 349 kts | 259° |
| 2026-05-06 11:46 | 51.95151 | -0.23332 | 15401 ft | 352 kts | 259° |
| 2026-05-06 11:46 | 51.94640 | -0.27220 | 16128 ft | 356 kts | 258° |
| 2026-05-06 11:47 | 51.94123 | -0.31146 | 16787 ft | 360 kts | 258° |
| 2026-05-06 11:47 | 51.93597 | -0.35141 | 17444 ft | 365 kts | 259° |
| 2026-05-06 11:47 | 51.93063 | -0.39178 | 18207 ft | 367 kts | 259° |
| 2026-05-06 11:47 | 51.92522 | -0.43251 | 18794 ft | 370 kts | 258° |
| 2026-05-06 11:48 | 51.91979 | -0.47336 | 19369 ft | 374 kts | 258° |
| 2026-05-06 11:48 | 51.91418 | -0.51463 | 19912 ft | 378 kts | 256° |
| 2026-05-06 11:48 | 51.90694 | -0.55539 | 20516 ft | 380 kts | 254° |
| 2026-05-06 11:48 | 51.89959 | -0.59672 | 21107 ft | 382 kts | 255° |
| 2026-05-06 11:49 | 51.89230 | -0.63819 | 21634 ft | 387 kts | 255° |
| 2026-05-06 11:49 | 51.88488 | -0.68055 | 22183 ft | 390 kts | 255° |
| 2026-05-06 11:49 | 51.87746 | -0.72291 | 22734 ft | 392 kts | 254° |
| 2026-05-06 11:49 | 51.86999 | -0.76549 | 23292 ft | 395 kts | 254° |
| 2026-05-06 11:50 | 51.86244 | -0.80844 | 23756 ft | 399 kts | 254° |
| 2026-05-06 11:50 | 51.85485 | -0.85156 | 24178 ft | 402 kts | 254° |
| 2026-05-06 11:50 | 51.84713 | -0.89529 | 24648 ft | 404 kts | 254° |
| 2026-05-06 11:50 | 51.83942 | -0.93882 | 25093 ft | 406 kts | 254° |
| 2026-05-06 11:51 | 51.83157 | -0.98302 | 25508 ft | 410 kts | 254° |
| 2026-05-06 11:51 | 51.82379 | -1.02677 | 25901 ft | 413 kts | 254° |
| 2026-05-06 11:51 | 51.81581 | -1.07153 | 26327 ft | 415 kts | 254° |
| 2026-05-06 11:51 | 51.80780 | -1.11628 | 26737 ft | 417 kts | 254° |
| 2026-05-06 11:52 | 51.79970 | -1.16152 | 27081 ft | 421 kts | 254° |
| 2026-05-06 11:52 | 51.79147 | -1.20732 | 27421 ft | 424 kts | 254° |
| 2026-05-06 11:52 | 51.78320 | -1.25320 | 27890 ft | 425 kts | 254° |
| 2026-05-06 11:52 | 51.77491 | -1.29911 | 28206 ft | 429 kts | 254° |
| 2026-05-06 11:53 | 51.76651 | -1.34548 | 28505 ft | 433 kts | 255° |
| 2026-05-06 11:53 | 51.75809 | -1.39191 | 28958 ft | 434 kts | 254° |
| 2026-05-06 11:53 | 51.74954 | -1.43890 | 29313 ft | 436 kts | 254° |
| 2026-05-06 11:53 | 51.74094 | -1.48596 | 29616 ft | 440 kts | 254° |
| 2026-05-06 11:54 | 51.73221 | -1.53376 | 29996 ft | 441 kts | 254° |
| 2026-05-06 11:54 | 51.72350 | -1.58119 | 30317 ft | 443 kts | 254° |
| 2026-05-06 11:54 | 51.71475 | -1.62881 | 30565 ft | 446 kts | 254° |
| 2026-05-06 11:54 | 51.70759 | -1.67749 | 30902 ft | 445 kts | 265° |
| 2026-05-06 11:55 | 51.70834 | -1.72674 | 31391 ft | 442 kts | 276° |
| 2026-05-06 11:55 | 51.71148 | -1.77606 | 31746 ft | 442 kts | 275° |
| 2026-05-06 11:55 | 51.71470 | -1.82564 | 32011 ft | 444 kts | 276° |
| 2026-05-06 11:55 | 51.71980 | -1.87390 | 32008 ft | 442 kts | 283° |
| 2026-05-06 11:56 | 51.73377 | -1.97034 | 32034 ft | 441 kts | 282° |
| 2026-05-06 11:56 | 51.74755 | -2.06687 | 32024 ft | 441 kts | 282° |
| 2026-05-06 11:57 | 51.76123 | -2.16327 | 32021 ft | 441 kts | 282° |
| 2026-05-06 11:57 | 51.77488 | -2.26002 | 32017 ft | 441 kts | 282° |
| 2026-05-06 11:58 | 51.78843 | -2.35676 | 32035 ft | 441 kts | 282° |
| 2026-05-06 11:58 | 51.80182 | -2.45294 | 32025 ft | 439 kts | 282° |
| 2026-05-06 11:59 | 51.81505 | -2.54860 | 32027 ft | 438 kts | 282° |
| 2026-05-06 11:59 | 51.82819 | -2.64417 | 32027 ft | 438 kts | 282° |
| 2026-05-06 12:00 | 51.83917 | -2.72453 | 32032 ft | 437 kts | 281° |
| 2026-05-06 12:00 | 51.85433 | -2.83624 | 32046 ft | 437 kts | 281° |
| 2026-05-06 12:01 | 51.86515 | -2.91647 | 32047 ft | 437 kts | 281° |
| 2026-05-06 12:01 | 51.87803 | -3.01263 | 32043 ft | 435 kts | 281° |
| 2026-05-06 12:02 | 51.89071 | -3.10786 | 32045 ft | 435 kts | 281° |
| 2026-05-06 12:02 | 51.90337 | -3.20361 | 32048 ft | 436 kts | 281° |
| 2026-05-06 12:03 | 51.91593 | -3.29920 | 32038 ft | 435 kts | 281° |
| 2026-05-06 12:03 | 51.92846 | -3.39526 | 32028 ft | 435 kts | 281° |
| 2026-05-06 12:04 | 51.94085 | -3.49082 | 32027 ft | 434 kts | 281° |
| 2026-05-06 12:04 | 51.95316 | -3.58648 | 32029 ft | 434 kts | 281° |
| 2026-05-06 12:05 | 51.96536 | -3.68195 | 32025 ft | 434 kts | 281° |
| 2026-05-06 12:05 | 51.97755 | -3.77794 | 32026 ft | 434 kts | 281° |
| 2026-05-06 12:06 | 51.98963 | -3.87379 | 32029 ft | 433 kts | 281° |
| 2026-05-06 12:06 | 52.00162 | -3.96956 | 32029 ft | 432 kts | 281° |
| 2026-05-06 12:07 | 52.01348 | -4.06495 | 32023 ft | 432 kts | 280° |
| 2026-05-06 12:07 | 52.02517 | -4.15969 | 32023 ft | 432 kts | 280° |
| 2026-05-06 12:08 | 52.03689 | -4.25528 | 32023 ft | 432 kts | 280° |
| 2026-05-06 12:08 | 52.04856 | -4.35118 | 32029 ft | 432 kts | 280° |
| 2026-05-06 12:09 | 52.06016 | -4.44712 | 32025 ft | 432 kts | 280° |
| 2026-05-06 12:09 | 52.07162 | -4.54268 | 32024 ft | 431 kts | 280° |
| 2026-05-06 12:10 | 52.08300 | -4.63828 | 32031 ft | 431 kts | 280° |
| 2026-05-06 12:10 | 52.09426 | -4.73355 | 32031 ft | 431 kts | 280° |
| 2026-05-06 12:11 | 52.10552 | -4.82947 | 32031 ft | 431 kts | 280° |
| 2026-05-06 12:11 | 52.11665 | -4.92503 | 32034 ft | 431 kts | 280° |
| 2026-05-06 12:12 | 52.12774 | -5.02095 | 32029 ft | 431 kts | 280° |
| 2026-05-06 12:12 | 52.14250 | -5.11505 | 32013 ft | 432 kts | 296° |
| 2026-05-06 12:13 | 52.15916 | -5.15585 | 31925 ft | 430 kts | 309° |
| 2026-05-06 12:13 | 52.18111 | -5.18854 | 31318 ft | 431 kts | 322° |
| 2026-05-06 12:13 | 52.20712 | -5.21358 | 30347 ft | 439 kts | 329° |
| 2026-05-06 12:13 | 52.23438 | -5.23623 | 29355 ft | 443 kts | 331° |
| 2026-05-06 12:14 | 52.26174 | -5.25867 | 28766 ft | 437 kts | 330° |
| 2026-05-06 12:14 | 52.28862 | -5.28100 | 28255 ft | 430 kts | 330° |
| 2026-05-06 12:14 | 52.31527 | -5.30284 | 27668 ft | 426 kts | 331° |
| 2026-05-06 12:14 | 52.34136 | -5.32406 | 27094 ft | 422 kts | 331° |
| 2026-05-06 12:15 | 52.36796 | -5.34567 | 26533 ft | 419 kts | 331° |
| 2026-05-06 12:15 | 52.39355 | -5.36647 | 25973 ft | 415 kts | 331° |
| 2026-05-06 12:15 | 52.41929 | -5.38772 | 25357 ft | 414 kts | 331° |
| 2026-05-06 12:15 | 52.44507 | -5.40910 | 24813 ft | 411 kts | 331° |
| 2026-05-06 12:16 | 52.47030 | -5.43003 | 24288 ft | 408 kts | 331° |
| 2026-05-06 12:16 | 52.49550 | -5.45095 | 23753 ft | 406 kts | 331° |
| 2026-05-06 12:16 | 52.52062 | -5.47183 | 23133 ft | 404 kts | 331° |
| 2026-05-06 12:16 | 52.54563 | -5.49264 | 22555 ft | 400 kts | 332° |
| 2026-05-06 12:17 | 52.57155 | -5.50886 | 21942 ft | 400 kts | 341° |
| 2026-05-06 12:17 | 52.59798 | -5.52227 | 21460 ft | 395 kts | 341° |
| 2026-05-06 12:17 | 52.62421 | -5.53574 | 20955 ft | 392 kts | 341° |
| 2026-05-06 12:17 | 52.65030 | -5.54916 | 20447 ft | 389 kts | 341° |
| 2026-05-06 12:18 | 52.67600 | -5.56238 | 19926 ft | 387 kts | 341° |
| 2026-05-06 12:18 | 52.70164 | -5.57558 | 19425 ft | 385 kts | 341° |
| 2026-05-06 12:18 | 52.72733 | -5.58891 | 18530 ft | 393 kts | 340° |
| 2026-05-06 12:18 | 52.75351 | -5.60252 | 17810 ft | 394 kts | 341° |
| 2026-05-06 12:19 | 52.77949 | -5.61605 | 17064 ft | 395 kts | 341° |
| 2026-05-06 12:19 | 52.80576 | -5.62974 | 16302 ft | 397 kts | 341° |
| 2026-05-06 12:19 | 52.83209 | -5.64348 | 15533 ft | 398 kts | 341° |
| 2026-05-06 12:19 | 52.85821 | -5.65712 | 14739 ft | 388 kts | 341° |
| 2026-05-06 12:20 | 52.88365 | -5.67043 | 14051 ft | 376 kts | 340° |
| 2026-05-06 12:20 | 52.90823 | -5.68330 | 13274 ft | 367 kts | 341° |
| 2026-05-06 12:20 | 52.93215 | -5.69584 | 12543 ft | 358 kts | 341° |
| 2026-05-06 12:20 | 52.95557 | -5.70814 | 11847 ft | 348 kts | 341° |
| 2026-05-06 12:21 | 52.97836 | -5.72012 | 11191 ft | 340 kts | 341° |
| 2026-05-06 12:21 | 53.00069 | -5.73187 | 10533 ft | 333 kts | 341° |
| 2026-05-06 12:21 | 53.02264 | -5.74343 | 9888 ft | 327 kts | 341° |
| 2026-05-06 12:21 | 53.04413 | -5.75477 | 9178 ft | 321 kts | 341° |
| 2026-05-06 12:22 | 53.06520 | -5.76589 | 8544 ft | 315 kts | 341° |
| 2026-05-06 12:22 | 53.08565 | -5.77668 | 7943 ft | 310 kts | 341° |
| 2026-05-06 12:22 | 53.10608 | -5.78750 | 7332 ft | 305 kts | 341° |
| 2026-05-06 12:22 | 53.12644 | -5.79418 | 7082 ft | 289 kts | 2° |
| 2026-05-06 12:23 | 53.14458 | -5.78448 | 7070 ft | 269 kts | 35° |
| 2026-05-06 12:23 | 53.15648 | -5.76205 | 7104 ft | 253 kts | 60° |
| 2026-05-06 12:23 | 53.16487 | -5.73644 | 6866 ft | 251 kts | 62° |
| 2026-05-06 12:23 | 53.17326 | -5.71170 | 7011 ft | 246 kts | 60° |
| 2026-05-06 12:24 | 53.18196 | -5.68687 | 7086 ft | 248 kts | 60° |
| 2026-05-06 12:24 | 53.19061 | -5.66187 | 6897 ft | 250 kts | 60° |
| 2026-05-06 12:24 | 53.20081 | -5.63850 | 6526 ft | 253 kts | 41° |
| 2026-05-06 12:24 | 53.21480 | -5.62059 | 6149 ft | 253 kts | 37° |
| 2026-05-06 12:25 | 53.22900 | -5.60374 | 5720 ft | 249 kts | 28° |
| 2026-05-06 12:25 | 53.24551 | -5.59701 | 5288 ft | 245 kts | 357° |
| 2026-05-06 12:25 | 53.26168 | -5.60341 | 5007 ft | 233 kts | 338° |
| 2026-05-06 12:25 | 53.27620 | -5.61286 | 4956 ft | 224 kts | 337° |
| 2026-05-06 12:26 | 53.29090 | -5.62258 | 4731 ft | 224 kts | 338° |
| 2026-05-06 12:26 | 53.30512 | -5.63207 | 4417 ft | 223 kts | 336° |
| 2026-05-06 12:26 | 53.31862 | -5.64455 | 4096 ft | 222 kts | 325° |
| 2026-05-06 12:26 | 53.33121 | -5.65937 | 3806 ft | 221 kts | 324° |
| 2026-05-06 12:27 | 53.34372 | -5.67446 | 3493 ft | 222 kts | 324° |
| 2026-05-06 12:27 | 53.35619 | -5.68962 | 3181 ft | 222 kts | 322° |
| 2026-05-06 12:27 | 53.36737 | -5.70676 | 3044 ft | 212 kts | 314° |
| 2026-05-06 12:27 | 53.37739 | -5.72395 | 3024 ft | 202 kts | 314° |
| 2026-05-06 12:28 | 53.38634 | -5.74189 | 3001 ft | 200 kts | 296° |
| 2026-05-06 12:28 | 53.39055 | -5.76391 | 3005 ft | 199 kts | 281° |
| 2026-05-06 12:28 | 53.39314 | -5.78685 | 3018 ft | 200 kts | 278° |
| 2026-05-06 12:28 | 53.39522 | -5.80975 | 3008 ft | 199 kts | 277° |
| 2026-05-06 12:29 | 53.39702 | -5.83280 | 3004 ft | 199 kts | 276° |
| 2026-05-06 12:29 | 53.39866 | -5.85577 | 3000 ft | 199 kts | 275° |
| 2026-05-06 12:29 | 53.40006 | -5.87879 | 2991 ft | 199 kts | 274° |
| 2026-05-06 12:29 | 53.40134 | -5.90140 | 2998 ft | 198 kts | 275° |
| 2026-05-06 12:30 | 53.40262 | -5.92438 | 2996 ft | 198 kts | 275° |
| 2026-05-06 12:30 | 53.40387 | -5.94741 | 2989 ft | 199 kts | 274° |
| 2026-05-06 12:30 | 53.40512 | -5.97033 | 2988 ft | 194 kts | 274° |
| 2026-05-06 12:30 | 53.40631 | -5.99242 | 2979 ft | 189 kts | 274° |
| 2026-05-06 12:31 | 53.40748 | -6.01386 | 2984 ft | 176 kts | 274° |
| 2026-05-06 12:31 | 53.40856 | -6.03386 | 2764 ft | 169 kts | 274° |
| 2026-05-06 12:31 | 53.40961 | -6.05331 | 2558 ft | 167 kts | 274° |
| 2026-05-06 12:31 | 53.41066 | -6.07266 | 2337 ft | 162 kts | 275° |
| 2026-05-06 12:32 | 53.41163 | -6.09062 | 2155 ft | 151 kts | 275° |
| 2026-05-06 12:32 | 53.41257 | -6.10789 | 1973 ft | 147 kts | 275° |
| 2026-05-06 12:32 | 53.41351 | -6.12514 | 1790 ft | 147 kts | 276° |
| 2026-05-06 12:32 | 53.41446 | -6.14206 | 1538 ft | 146 kts | 276° |
| 2026-05-06 12:33 | 53.41534 | -6.15912 | 1332 ft | 147 kts | 275° |
| 2026-05-06 12:33 | 53.41623 | -6.17592 | 1101 ft | 146 kts | 276° |
| 2026-05-06 12:33 | 53.41716 | -6.19295 | 934 ft | 148 kts | 276° |
| 2026-05-06 12:33 | 53.41810 | -6.21017 | 730 ft | 148 kts | 276° |
| 2026-05-06 12:34 | 53.41899 | -6.22729 | 553 ft | 149 kts | 275° |
| 2026-05-06 12:34 | 53.41994 | -6.24455 | 336 ft | 147 kts | 277° |
| 2026-05-06 12:34 | 53.42077 | -6.26126 | 218 ft | 134 kts | 283° |
| 2026-05-06 12:34 | 53.42153 | -6.27340 | 216 ft | 71 kts | 275° |
| 2026-05-06 12:35 | 53.42183 | -6.27907 | 214 ft | 33 kts | 275° |
| 2026-05-06 12:35 | 53.42220 | -6.28154 | 219 ft | 18 kts | 296° |
| 2026-05-06 12:35 | 53.42278 | -6.28289 | 218 ft | 6 kts | 316° |
| 2026-05-06 12:35 | 53.42325 | -6.28316 | 213 ft | 9 kts | 4° |
| 2026-05-06 12:36 | 53.42370 | -6.28244 | 218 ft | 11 kts | 82° |
| 2026-05-06 12:36 | 53.42366 | -6.28110 | 213 ft | 13 kts | 96° |
| 2026-05-06 12:36 | 53.42355 | -6.27934 | 213 ft | 17 kts | 95° |
| 2026-05-06 12:36 | 53.42344 | -6.27709 | 213 ft | 22 kts | 95° |
| 2026-05-06 12:37 | 53.42328 | -6.27435 | 213 ft | 25 kts | 96° |
| 2026-05-06 12:37 | 53.42311 | -6.27135 | 220 ft | 27 kts | 95° |
| 2026-05-06 12:37 | 53.42294 | -6.26845 | 213 ft | 21 kts | 95° |
| 2026-05-06 12:37 | 53.42281 | -6.26596 | 213 ft | 22 kts | 95° |
| 2026-05-06 12:38 | 53.42268 | -6.26330 | 213 ft | 24 kts | 92° |
| 2026-05-06 12:38 | 53.42290 | -6.26122 | 215 ft | 18 kts | 59° |
| 2026-05-06 12:38 | 53.42378 | -6.25960 | 219 ft | 20 kts | 46° |
| 2026-05-06 12:38 | 53.42477 | -6.25790 | 213 ft | 22 kts | 45° |
| 2026-05-06 12:39 | 53.42590 | -6.25601 | 217 ft | 24 kts | 46° |
| 2026-05-06 12:39 | 53.42702 | -6.25404 | 219 ft | 22 kts | 46° |
| 2026-05-06 12:39 | 53.42803 | -6.25238 | 213 ft | 12 kts | 46° |
| 2026-05-06 12:39 | 53.42866 | -6.25190 | 213 ft | 11 kts | 351° |
| 2026-05-06 12:40 | 53.42935 | -6.25227 | 213 ft | 8 kts | 6° |
| 2026-05-06 12:40 | 53.42952 | -6.25204 | 218 ft | 0 kts | 58° |
| 2026-05-06 12:41 | 53.42953 | -6.25202 | 217 ft | 1 kts | 62° |
| 2026-05-06 12:41 | 53.42957 | -6.25181 | 218 ft | 3 kts | 67° |
| 2026-05-06 12:41 | 53.42977 | -6.25153 | 213 ft | 3 kts | 25° |
| 2026-05-06 12:41 | 53.42997 | -6.25144 | 213 ft | 3 kts | 11° |
| 2026-05-06 12:42 | 53.43006 | -6.25141 | 213 ft | 2 kts | 11° |
| 2026-05-06 12:42 | 53.43016 | -6.25138 | 216 ft | 0 kts | 11° |